Flight Track Log - Related Links

Times and Time Zones

All times are in EDT time to prevent confusion due to time zone crossing. See the TCF5922 flight status page for this flight to view local times or setup timezone preferences in your user account.

Time Position Orientation Groundspeed Altitude Reporting Facility
EDT Latitude Longitude Course Direction KTS MPH feet Rate Location/Type
Sun 05:21:39 PM 38.8667 -77.0500 322° Northwest 143 165 1,100  Level Potomac TRACON
Sun 05:22:33 PM 38.9000 -77.0833 322° Northwest 195 224 3,100 3,000 Climbing Potomac TRACON
Sun 05:23:39 PM 38.9500 -77.1500 314° West 250 288 7,100 3,524 Climbing Potomac TRACON
Sun 05:24:39 PM 39.0167 -77.1000 30° Northeast 321 369 10,500 2,786 Climbing Potomac TRACON
Sun 05:26:27 PM 39.0128 -76.8819 91° East 366 421 14,900 2,500 Climbing Washington Center
Sun 05:27:27 PM 39.0161 -76.7431 88° East 376 433 17,500 2,182 Climbing Washington Center
Sun 05:28:28 PM 39.0197 -76.5989 88° East 389 448 19,300 1,736 Climbing Washington Center
Sun 05:29:28 PM 39.0250 -76.4467 87° East 403 464 21,000 864 Climbing Washington Center
Sun 05:30:26 PM 39.0281 -76.3103 88° East 399 459 21,000  Level Washington Center
Sun 05:31:27 PM 39.0350 -76.1769 86° East 366 421 21,000  Level Washington Center
Sun 05:32:27 PM 39.0436 -76.0728 84° East 337 388 21,000  Level Washington Center
Sun 05:33:28 PM 39.0483 -75.9550 87° East 324 373 21,000  Level Washington Center
Sun 05:34:27 PM 39.0569 -75.8403 84° East 324 373 21,000  Level Washington Center
Sun 05:35:27 PM 39.0736 -75.7306 79° East 324 373 21,000  Level Washington Center
Sun 05:36:28 PM 39.1281 -75.6506 49° Northeast 299 344 21,000  Level Washington Center
Sun 05:37:26 PM 39.1883 -75.5756 44° Northeast 287 330 21,000  Level Washington Center
Sun 05:38:26 PM 39.2489 -75.5031 43° Northeast 292 336 21,000  Level Washington Center
Sun 05:39:27 PM 39.3156 -75.4442 34° Northeast 292 336 21,000  Level Washington Center
Sun 05:40:29 PM 39.3842 -75.3847 34° Northeast 292 336 21,000  Level Washington Center
Sun 05:41:26 PM 39.4486 -75.3256 35° Northeast 287 330 21,000 -305 Level Washington Center
Sun 05:42:27 PM 39.5172 -75.2661 34° Northeast 282 325 20,400 -934 Descending Washington Center
Sun 05:43:28 PM 39.5794 -75.2039 38° Northeast 282 325 19,100 -908 Descending Washington Center
Sun 05:44:26 PM 39.6439 -75.1442 36° Northeast 282 325 18,600 -915 Descending Washington Center
Sun 05:45:26 PM 39.7167 -75.0817 33° Northeast 282 325 17,300 -1,050 Descending Washington Center
Sun 05:46:26 PM 39.7789 -75.0272 34° Northeast 282 325 16,500 -843 Descending Washington Center
Sun 05:47:27 PM 39.8431 -74.9728 33° Northeast 277 319 15,600 -992 Descending Washington Center
Sun 05:48:27 PM 39.9053 -74.9181 34° Northeast 277 319 14,500 -793 Descending Washington Center
Sun 05:49:28 PM 39.9611 -74.8444 45° Northeast 277 319 14,000 -298 Descending Washington Center
Sun 05:50:28 PM 40.0192 -74.8031 29° Northeast 241 277 13,900 -51 Descending Washington Center
Sun 05:51:26 PM 40.0447 -74.8625 299° West 152 175 13,900 51 Level Washington Center
Sun 05:52:26 PM 40.0075 -74.9225 231° Southwest 105 121 14,000 50 Climbing Washington Center
Sun 05:53:27 PM 39.9661 -74.9769 225° Southwest 157 181 14,000  Level Washington Center
Sun 05:54:29 PM 39.9206 -75.0206 216° Southwest 186 214 14,000  Level Washington Center
Sun 05:55:26 PM 39.8806 -74.9481 126° Southeast 178 205 14,000 -453 Level Washington Center
Sun 05:57:08 PM 39.9833 -74.8167 44° Northeast 304 350 12,800 -1,036 Descending New York TRACON
Sun 05:58:14 PM 40.0500 -74.7167 49° Northeast 332 382 11,100 -1,333 Descending New York TRACON
Sun 05:59:14 PM 40.1000 -74.6333 52° Northeast 311 358 10,000 -550 Descending New York TRACON
Sun 06:00:14 PM 40.1667 -74.5500 44° Northeast 311 358 10,000  Level New York TRACON
Sun 06:01:08 PM 40.2167 -74.4667 52° Northeast 312 359 10,000  Level New York TRACON
Sun 06:02:08 PM 40.2833 -74.4000 37° Northeast 307 353 10,000  Level New York TRACON
Sun 06:03:14 PM 40.3500 -74.3333 37° Northeast 305 351 10,000 -550 Level New York TRACON
Sun 06:04:08 PM 40.4167 -74.2667 37° Northeast 302 348 8,900 -1,474 Descending New York TRACON
Sun 06:05:08 PM 40.4833 -74.2000 37° Northeast 288 331 7,200 -1,381 Descending New York TRACON
Sun 06:06:14 PM 40.5500 -74.1333 37° Northeast 272 313 6,000 -1,450 Descending New York TRACON
Sun 06:07:08 PM 40.6000 -74.0667 45° Northeast 266 306 4,300 -1,000 Descending New York TRACON
Sun 06:08:14 PM 40.6500 -74.0000 45° Northeast 268 308 4,000 -150 Descending New York TRACON
Sun 06:09:08 PM 40.7000 -73.9500 37° Northeast 270 311 4,000  Level New York TRACON
Sun 06:10:14 PM 40.7500 -73.8500 57° Northeast 274 315 4,000  Level New York TRACON
Sun 06:11:08 PM 40.7833 -73.7833 57° Northeast 268 308 4,000  Level New York TRACON
Sun 06:12:14 PM 40.8333 -73.7167 45° Northeast 232 267 4,000 -48 Level New York TRACON
Sun 06:13:14 PM 40.8667 -73.7500 323° Northwest 177 204 3,900 -800 Descending New York TRACON
Sun 06:14:14 PM 40.8667 -73.8000 270° West 147 169 2,400 -1,368 Descending New York TRACON
Sun 06:15:08 PM 40.8333 -73.8333 217° Southwest 135 155 1,300 -1,000 Descending New York TRACON
Sun 06:16:14 PM 40.8000 -73.8500 201° Southwest 128 147 400 -818 Descending New York TRACON

Login

Don't have an account? Register now (free) for customized features, flight alerts, and more!